General Leobardo C Ruiz International Airport
MMZC : now visible

Aeroporto :











RITROVATECI SU...

 
LOGIN :

Iscrizione | Disclaimer

   EN    FR    IT 

 









Sommario :    VFR   VFR Marginale   IFR   IFR Intensivo   IFR Molto Intensivo
Visibilità : 
Base nubi : 
>= 8 km
>= 3000ft
5 / 8 km
1000 / 3000 ft
1500m / 5 km
500 / 1000 ft
800 / 1500m
200 / 500 ft
< 800m
< 200 ft
Simboli :   Temporali  Nebbia  Neve Forte  Precipitazioni Forti  Vento > 20 kt






- Altitudine del aeroporto : 7141 ft
- Codice IATA : ZCL


MMZC - General Leobardo C Ruiz International

ULTIMO METAR :
  • 231941Z 24020G30KT 10SM BKN200 26/04 A3028 RMK 8/001

METARs OBSOLETI :
  • 231841Z 24022KT 10SM BKN200 21/04 A3031 RMK 8/001
  • 231748Z 27010KT 10SM OVC200 19/05 A3033 RMK 8/001

TAF TAF MMZC
Valido dal 23 a 18 ore il 25 a 00 ore UTC


231607Z 2318/2424 24015KT P6SM SCT200 TX24/2321Z TN10/2412Z
FM240600 24008KT 5SM HZ SCT100 SCT200
FM241200 20010KT P6SM SCT200
FM241800 24018KT P6SM BKN200



MetMap, La meteo Aeronautica in un colpo d'occhio ! - Copyright ORBIFLY Dicembre 2007 - Disclaimer

ORBIFLY MET'MAP TEAM :

Programmazione e sviluppo : Alexandra Zaïnal
Concezione : Baudouin d'Aumeries
Aiuto per la programmazione : Marc-Olivier Méhu
Supporto tecnico e logistico : Manuel Goepfert
Aiuto per la traduzione : Arnaldo La Scala

Contatto : metmap@orbifly.com




FONTI E CREDITI :

   NOAA       Earth
Advisory